x

East Gulf - 208 Mn West Of Naples, Fl (42003) Wave Buoy

1:50am - Fri 12th Feb 2016 All times are EST. -5 hours from GMT.

  • Sig Wave height 1.6ft
  • Swell Direction
  • Peak Period 7s
  • Average Period 5s
  • Wind
    2mph, 7mph gusts
  • Sea Temp 79°f
  • Air Temp 69°f
  • Sea Pressure 1025.6mb
  • East Gulf - 208 Mn West Of Naples, Fl
  • East Gulf - 208 Mn West Of Naples, Fl

More Historic Weather Station data

Upgrade to MSW Pro to gain access to the past 30 days of data for over 8000 Wavebouys and Weather Stations around the globe.

Join Pro

Comparision Forecast

View Surf forecast
   
Fri 02/12 1:50am 1.6ft 7s 5s 2 7 mph 1025.6mb 79f 69f
12:50am 1.6ft 6s 5s 4 9 mph 1025.7mb 79f 69f
Thu 02/11 11:50pm 1.6ft 6s 5s 7 9 mph 1025.9mb 79f 69f
10:50pm 1.6ft 6s 5s 7 11 mph 1026mb 79f 69f
9:50pm 1.6ft 6s 5s 7 11 mph 1026.2mb 79f 69f
8:50pm 1.6ft 6s 5s 9 11 mph 1026.2mb 79f 68f
7:50pm 2ft 6s 5s 7 13 mph 1025.8mb 79f 68f
6:50pm 2ft 6s 5s 7 9 mph 1025.7mb 79f 67f
5:50pm 2ft 6s 5s 7 11 mph 1025.4mb 79f 67f
4:50pm 2.5ft 6s 5s 9 11 mph 1025.1mb 80f 67f
3:50pm 2.5ft 7s 5s 7 9 mph 1025.1mb 80f 67f
2:50pm 2.5ft 7s 5s 9 11 mph 1025.1mb 79f 66f
1:50pm 2.5ft 7s 5s 7 11 mph 1025.9mb 79f 66f
12:50pm 3ft 6s 5s 9 13 mph 1026.7mb 79f 66f
11:50am 3ft 7s 5s 7 11 mph 1027.4mb 79f 66f
10:50am 3.5ft 7s 5s 7 11 mph 1027.7mb 79f 66f
6:50am 4ft 8s 6s 9 13 mph 1025.9mb 79f 64f
5:50am 4ft 8s 6s 7 11 mph 1025.5mb 79f 64f
4:50am 4.5ft 8s 6s 7 13 mph 1025.1mb 79f 64f
3:50am 4.5ft 8s 6s 9 11 mph 1024.8mb 79f 64f
2:50am 4.5ft 8s 6s 7 11 mph 1025.1mb 79f 64f
1:50am 5ft 8s 6s 9 13 mph 1025.4mb 79f 63f
12:50am 5.5ft 8s 6s 9 13 mph 1025.9mb 79f 64f
Wed 02/10 11:50pm 5.5ft 9s 6s 11 16 mph 1026.3mb 79f 63f
10:50pm 6ft 8s 6s 13 18 mph 1026.7mb 79f 63f
9:50pm 6.5ft 8s 6s 11 18 mph 1026.7mb 79f 62f
8:50pm 6ft 8s 6s 16 20 mph 1026.6mb 79f 63f
7:50pm 6ft 9s 6s 16 25 mph 1026mb 79f 62f
6:50pm 6ft 8s 5s 18 22 mph 1025.5mb 79f 63f
5:50pm 7ft 8s 6s 18 25 mph 1025.4mb 79f 63f
4:50pm 7.5ft 8s 6s 18 27 mph 1024.6mb 79f 63f
3:50pm 7.5ft 9s 6s 18 25 mph 1024.3mb 79f 64f
2:50pm 7.5ft 9s 6s 20 27 mph 1024.2mb 79f 64f
1:50pm 7ft 8s 6s 20 27 mph 1024.5mb 79f 64f
12:50pm 8ft 9s 6s 20 29 mph 1025.1mb 79f 64f
11:50am 8ft 9s 6s 22 27 mph 1025.7mb 79f 65f
10:50am 7.5ft 9s 6s 20 27 mph 1025.7mb 79f 65f
9:50am 8.5ft 9s 6s 20 27 mph 1025.2mb 79f 64f
8:50am 8ft 8s 6s 20 29 mph 1024.5mb 79f 64f
7:50am 9ft 9s 6s 22 31 mph 1023.3mb 79f 64f
6:50am 8ft 8s 6s 22 29 mph 1022.7mb 79f 64f
5:50am 8.5ft 8s 6s 25 34 mph 1021.8mb 79f 65f
4:50am 9ft 9s 6s 22 29 mph 1021.3mb 79f 65f
3:50am 9ft 8s 6s 25 31 mph 1021mb 79f 65f
2:50am 9ft 10s 6s 25 31 mph 1020.9mb 79f 66f
1:50am 9ft 10s 6s 25 31 mph 1021.2mb 79f 66f
12:50am 9.5ft 9s 6s 22 29 mph 1021.5mb 79f 66f
Tue 02/09 11:50pm 9ft 9s 6s 25 31 mph 1021.5mb 79f 65f
10:50pm 9.5ft 10s 6s 25 31 mph 1021.1mb 79f 65f
9:50pm 9ft 10s 6s 25 29 mph 1020.6mb 79f 65f
8:50pm 9ft 10s 6s 22 29 mph 1020.4mb 79f 65f
7:50pm 10ft 9s 6s 22 29 mph 1020mb 79f 64f
6:50pm 9ft 9s 6s 27 34 mph 1019.3mb 79f 65f
5:50pm 9.5ft 10s 6s 27 34 mph 1019mb 79f 66f
4:50pm 11ft 10s 7s 27 34 mph 1018.4mb 79f 66f
3:50pm 10ft 10s 6s 27 34 mph 1018.4mb 79f 65f
2:50pm 10.5ft 9s 6s 27 34 mph 1018.5mb 79f 66f
1:50pm 10ft 10s 6s 25 34 mph 1019mb 79f 65f
12:50pm 10.5ft 10s 7s 27 34 mph 1020mb 79f 65f
11:50am 10.5ft 10s 7s 22 31 mph 1020.8mb 79f 64f
10:50am 10.5ft 10s 7s 22 29 mph 1021.2mb 79f 64f
9:50am 11.5ft 9s 7s 25 34 mph 1020.8mb 79f 64f
8:50am 11ft 10s 6s 27 34 mph 1020mb 79f 64f
7:50am 12.5ft 10s 7s 25 29 mph 1019.7mb 79f 64f
6:50am 12ft 10s 7s 27 34 mph 1019.2mb 79f 65f
5:50am 13ft 10s 7s 29 40 mph 1018.5mb 79f 65f
4:50am 12ft 9s 7s 29 38 mph 1018mb 79f 65f
3:50am 12ft 9s 6s 31 38 mph 1017.4mb 79f 66f
2:50am 13ft 9s 7s 31 36 mph 1017.5mb 79f 67f
1:50am 14ft 8s 7s 31 40 mph 1017.7mb 79f 67f
12:50am 10ft 8s 6s 36 45 mph 1016.9mb 79f 68f
Mon 02/08 11:50pm 10ft 7s 6s 34 43 mph 1017mb 79f 70f
10:50pm 9ft 7s 5s 34 40 mph 1016.9mb 79f 71f
9:50pm 8.5ft 7s 5s 31 40 mph 1016.8mb 80f 71f
8:50pm 8.5ft 6s 5s 29 38 mph 1016.5mb 80f 71f
7:50pm 7ft 6s 5s 29 36 mph 1016.6mb 80f 71f
6:50pm 6ft 6s 5s 27 34 mph 1016.2mb 80f 72f
5:50pm 5.5ft 5s 5s 29 36 mph 1016.2mb 79f 71f
4:50pm 4.5ft 4s 4s 27 34 mph 1016.5mb 79f 71f
3:50pm 4.5ft 5s 4s 25 29 mph 1016.7mb 79f 70f
2:50pm 4ft 5s 4s 22 27 mph 1017.3mb 79f 69f
1:50pm 4.5ft 5s 4s 20 25 mph 1018.2mb 79f 69f
12:50pm 4ft 8s 4s 18 25 mph 1019.6mb 79f 68f
11:50am 4.5ft 8s 4s 20 25 mph 1020.6mb 79f 68f
10:50am 4ft 8s 5s 18 22 mph 1021.4mb 79f 67f
9:50am 4.5ft 8s 5s 16 22 mph 1021.2mb 79f 67f
8:50am 4.5ft 8s 5s 16 20 mph 1020.8mb 79f 67f